Time;durP1;ratioP1;P1;durP2;ratioP2;P2;SDS_P1;SDS_P2;PMS_P1;PMS_P2;Temp;Humidity;BMP_temperature;BMP_pressure;BME280_temperature;BME280_humidity;BME280_pressure;Samples;Min_cycle;Max_cycle;Signal;HPM_P1;HPM_P2
2023/04/20 00:00:42;;;;;;;0.60;0.60;;;;;;;7.21;35.37;99921.03;5072378;28;20522;-82
2023/04/20 00:03:09;;;;;;;0.60;0.60;;;;;;;7.22;35.69;99928.06;5072079;28;20766;-81
2023/04/20 00:05:36;;;;;;;0.60;0.60;;;;;;;7.11;35.67;99909.84;5072375;28;20062;-82
2023/04/20 00:08:03;;;;;;;0.60;0.60;;;;;;;7.11;35.73;99920.56;5072113;28;20055;-81
2023/04/20 00:10:30;;;;;;;0.50;0.50;;;;;;;7.08;35.74;99915.63;5072333;28;20144;-82
2023/04/20 00:12:57;;;;;;;0.50;0.50;;;;;;;7.04;35.90;99908.97;5072179;28;20047;-83
2023/04/20 00:15:25;;;;;;;0.60;0.60;;;;;;;7.01;35.84;99912.06;5072245;28;20048;-81
2023/04/20 00:17:52;;;;;;;0.60;0.60;;;;;;;6.97;36.31;99916.19;5071796;28;20084;-81
2023/04/20 00:20:25;;;;;;;0.60;0.60;;;;;;;6.90;36.79;99914.28;5054915;28;20084;-82
2023/04/20 00:22:52;;;;;;;0.60;0.60;;;;;;;6.77;36.97;99914.22;5072185;28;20051;-82
2023/04/20 00:25:22;;;;;;;0.60;0.60;;;;;;;6.65;37.33;99911.25;5072090;28;20148;-83
2023/04/20 00:27:49;;;;;;;0.60;0.60;;;;;;;6.60;37.52;99908.31;5072730;28;20057;-83
2023/04/20 00:30:16;;;;;;;0.50;0.50;;;;;;;6.54;37.96;99910.97;5056252;28;20048;-81
2023/04/20 00:32:44;;;;;;;0.60;0.60;;;;;;;6.51;37.58;99910.34;5055500;28;20055;-82
2023/04/20 00:35:12;;;;;;;0.50;0.50;;;;;;;6.50;38.40;99902.47;5072195;28;20052;-80
2023/04/20 00:37:40;;;;;;;0.63;0.63;;;;;;;6.45;38.45;99902.25;5037417;28;20117;-81
2023/04/20 00:40:08;;;;;;;0.60;0.60;;;;;;;6.46;38.52;99891.34;5071651;28;20056;-81
2023/04/20 00:42:36;;;;;;;0.60;0.60;;;;;;;6.46;38.15;99893.19;5071380;28;20143;-82
2023/04/20 00:45:06;;;;;;;0.60;0.60;;;;;;;6.51;37.76;99893.44;5053669;28;20044;-82
2023/04/20 00:47:34;;;;;;;0.60;0.60;;;;;;;6.47;37.83;99887.63;5071615;28;20400;-82
2023/04/20 00:50:01;;;;;;;0.50;0.50;;;;;;;6.47;37.52;99887.63;5054839;28;20048;-82
2023/04/20 00:52:31;;;;;;;0.60;0.60;;;;;;;6.45;37.89;99889.66;5056751;28;20491;-83
2023/04/20 00:54:58;;;;;;;0.60;0.60;;;;;;;6.38;38.33;99887.97;5070998;28;20572;-81
2023/04/20 00:57:27;;;;;;;0.52;0.52;;;;;;;6.41;38.34;99885.72;5053599;28;20051;-83
2023/04/20 00:59:54;;;;;;;0.60;0.60;;;;;;;6.36;38.05;99879.31;5053248;28;20051;-81
2023/04/20 01:02:21;;;;;;;0.60;0.60;;;;;;;6.40;38.17;99883.22;5071191;28;20053;-82
2023/04/20 01:04:48;;;;;;;0.60;0.60;;;;;;;6.42;38.19;99884.69;5070851;28;20495;-82
2023/04/20 01:07:18;;;;;;;0.70;0.70;;;;;;;6.44;38.37;99881.81;5071006;28;20044;-82
2023/04/20 01:09:49;;;;;;;0.60;0.60;;;;;;;6.41;38.35;99876.88;5061457;28;20041;-81
2023/04/20 01:12:16;;;;;;;0.60;0.60;;;;;;;6.36;38.98;99874.75;5051050;28;20573;-82
2023/04/20 01:14:43;;;;;;;0.70;0.70;;;;;;;6.32;38.62;99881.53;5051248;28;20060;-82
2023/04/20 01:17:13;;;;;;;0.70;0.70;;;;;;;6.25;39.11;99876.13;5058870;28;20045;-82
2023/04/20 01:19:45;;;;;;;0.60;0.60;;;;;;;6.21;39.15;99872.19;5070767;28;20454;-83
2023/04/20 01:22:18;;;;;;;0.50;0.50;;;;;;;6.19;39.13;99873.41;5053649;28;20052;-82
2023/04/20 01:24:47;;;;;;;0.50;0.50;;;;;;;6.14;39.83;99870.47;5062180;28;20392;-82
2023/04/20 01:27:15;;;;;;;0.60;0.60;;;;;;;6.07;40.03;99867.72;5054606;28;20472;-83
2023/04/20 01:29:43;;;;;;;0.60;0.60;;;;;;;6.08;39.99;99862.19;5053628;28;20050;-81
2023/04/20 01:32:11;;;;;;;0.60;0.60;;;;;;;6.14;39.75;99862.44;5070577;28;20099;-82
2023/04/20 01:34:40;;;;;;;0.70;0.70;;;;;;;6.04;40.33;99862.75;5070565;28;20059;-82
2023/04/20 01:37:07;;;;;;;0.60;0.60;;;;;;;5.96;40.19;99861.06;5052270;28;20044;-82
2023/04/20 01:39:38;;;;;;;0.60;0.60;;;;;;;6.07;39.76;99863.19;5070301;28;20481;-82
2023/04/20 01:42:07;;;;;;;0.60;0.60;;;;;;;6.05;40.13;99862.59;5036207;28;20586;-82
2023/04/20 01:44:34;;;;;;;0.68;0.68;;;;;;;6.04;39.94;99860.91;5070330;28;20392;-82
2023/04/20 01:47:01;;;;;;;0.60;0.60;;;;;;;6.02;39.77;99852.22;5035674;28;20457;-83
2023/04/20 01:49:29;;;;;;;0.60;0.60;;;;;;;6.02;39.96;99852.22;5070400;28;20053;-82
2023/04/20 01:51:56;;;;;;;0.60;0.60;;;;;;;6.01;40.11;99863.97;5052353;28;20561;-82
2023/04/20 01:54:26;;;;;;;0.60;0.60;;;;;;;5.97;40.35;99859.19;5052319;28;20293;-82
2023/04/20 01:56:53;;;;;;;0.60;0.60;;;;;;;5.96;40.55;99850.34;5052097;28;20503;-82
2023/04/20 01:59:20;;;;;;;0.60;0.60;;;;;;;5.91;40.88;99847.38;5052420;28;20052;-82
2023/04/20 02:01:48;;;;;;;0.60;0.60;;;;;;;5.90;40.77;99848.41;5070103;28;20507;-82
2023/04/20 02:04:15;;;;;;;0.70;0.70;;;;;;;5.87;40.43;99843.41;5070668;28;20135;-82
2023/04/20 02:06:42;;;;;;;0.60;0.60;;;;;;;5.83;40.38;99845.66;5070241;28;20041;-83
2023/04/20 02:09:20;;;;;;;0.60;0.60;;;;;;;5.87;40.55;99843.41;5070176;28;20139;-82
2023/04/20 02:11:49;;;;;;;0.68;0.68;;;;;;;6.02;40.27;99844.19;5070244;28;20062;-82
2023/04/20 02:14:16;;;;;;;0.60;0.60;;;;;;;6.11;40.09;99841.38;5070162;28;20086;-83
2023/04/20 02:16:44;;;;;;;0.50;0.50;;;;;;;6.10;40.18;99837.03;5070265;28;20079;-82
2023/04/20 02:19:11;;;;;;;0.60;0.60;;;;;;;6.01;40.37;99833.69;5069895;28;20530;-82
2023/04/20 02:21:38;;;;;;;0.60;0.60;;;;;;;5.94;40.75;99841.66;5052112;28;20146;-82
2023/04/20 02:24:05;;;;;;;0.60;0.60;;;;;;;5.89;41.01;99838.69;5069874;28;20048;-82
2023/04/20 02:26:33;;;;;;;0.70;0.70;;;;;;;5.80;42.33;99838.03;5068886;28;20048;-82
2023/04/20 02:29:07;;;;;;;0.70;0.70;;;;;;;5.72;42.04;99848.03;5069930;28;20052;-82
2023/04/20 02:31:34;;;;;;;0.60;0.60;;;;;;;5.71;41.96;99844.53;5074447;28;20053;-83
2023/04/20 02:34:01;;;;;;;0.70;0.70;;;;;;;5.73;42.02;99841.66;5070258;28;20056;-82
2023/04/20 02:36:30;;;;;;;0.60;0.60;;;;;;;5.72;42.27;99846.19;5070377;28;20048;-83
2023/04/20 02:38:57;;;;;;;0.60;0.60;;;;;;;5.74;41.94;99843.31;5073188;28;20515;-83
2023/04/20 02:41:26;;;;;;;0.60;0.60;;;;;;;5.77;42.35;99832.22;5056007;28;20052;-82
2023/04/20 02:43:53;;;;;;;0.65;0.65;;;;;;;5.77;42.62;99837.56;5073164;28;20498;-81
2023/04/20 02:46:20;;;;;;;0.60;0.60;;;;;;;5.75;42.72;99840.44;5055567;28;20045;-80
2023/04/20 02:48:50;;;;;;;0.55;0.55;;;;;;;5.79;43.08;99831.00;5055764;28;20048;-82
2023/04/20 02:51:17;;;;;;;0.70;0.70;;;;;;;5.81;42.18;99825.44;5055841;28;20053;-83
2023/04/20 02:53:50;;;;;;;0.60;0.60;;;;;;;5.88;42.34;99829.03;5055649;28;20044;-83
2023/04/20 02:56:27;;;;;;;0.60;0.60;;;;;;;5.83;42.83;99820.75;5055967;28;20048;-81
2023/04/20 02:58:59;;;;;;;0.60;0.60;;;;;;;5.84;43.44;99822.38;5057250;28;20052;-81
2023/04/20 03:01:40;;;;;;;0.60;0.60;;;;;;;5.88;43.34;99831.69;5059916;28;20049;-82
2023/04/20 03:04:18;;;;;;;0.60;0.60;;;;;;;5.95;43.52;99827.25;5055813;28;20051;-84
2023/04/20 03:07:08;;;;;;;0.60;0.60;;;;;;;5.97;43.56;99827.88;5055452;28;20048;-82
2023/04/20 03:09:37;;;;;;;0.60;0.60;;;;;;;5.97;43.14;99824.38;5052006;28;20045;-83
2023/04/20 03:12:23;;;;;;;0.70;0.70;;;;;;;6.04;42.74;99823.41;5053329;28;20072;-80
2023/04/20 03:15:18;;;;;;;0.80;0.80;;;;;;;6.15;42.57;99818.50;5049933;28;20798;-83
2023/04/20 03:17:55;;;;;;;0.70;0.70;;;;;;;6.31;42.10;99817.41;5049090;28;20135;-82
2023/04/20 03:20:24;;;;;;;0.55;0.55;;;;;;;6.41;41.85;99813.34;5056221;28;20105;-82
2023/04/20 03:22:52;;;;;;;0.40;0.40;;;;;;;6.47;41.71;99817.91;5045200;28;20395;-82
2023/04/20 03:25:22;;;;;;;0.50;0.50;;;;;;;6.58;41.53;99816.50;5044288;28;20094;-83
2023/04/20 03:27:57;;;;;;;0.65;0.65;;;;;;;6.72;41.04;99809.34;5075938;28;20048;-83
2023/04/20 03:30:25;;;;;;;0.60;0.60;;;;;;;6.83;41.25;99800.72;5055748;28;20048;-81
2023/04/20 03:33:06;;;;;;;0.70;0.70;;;;;;;6.95;41.22;99809.03;5058361;28;20051;-83
2023/04/20 03:35:33;;;;;;;0.60;0.60;;;;;;;7.10;40.99;99808.88;5064765;28;20507;-80
2023/04/20 03:38:00;;;;;;;0.70;0.70;;;;;;;7.23;40.94;99805.41;5075892;28;20048;-82
2023/04/20 03:40:27;;;;;;;0.60;0.60;;;;;;;7.31;40.90;99814.06;5038374;28;20066;-83
2023/04/20 03:42:55;;;;;;;0.60;0.60;;;;;;;7.40;40.73;99805.84;5073006;28;20122;-83
2023/04/20 03:45:27;;;;;;;0.60;0.60;;;;;;;7.50;40.40;99815.16;5039463;28;20056;-83
2023/04/20 03:47:54;;;;;;;0.60;0.60;;;;;;;7.63;40.57;99803.59;5072367;28;20125;-82
2023/04/20 03:50:23;;;;;;;0.50;0.50;;;;;;;7.73;40.38;99803.19;5055162;28;20063;-82
2023/04/20 03:52:50;;;;;;;0.70;0.70;;;;;;;7.82;40.44;99802.78;5054752;28;20098;-81
2023/04/20 03:55:18;;;;;;;0.60;0.60;;;;;;;7.91;40.46;99799.88;5054525;28;20052;-83
2023/04/20 03:57:52;;;;;;;0.60;0.60;;;;;;;8.02;40.22;99799.25;5057071;28;20418;-82
2023/04/20 04:00:37;;;;;;;0.60;0.60;;;;;;;8.24;40.19;99803.34;5058987;28;20494;-81
2023/04/20 04:03:09;;;;;;;0.55;0.55;;;;;;;8.38;39.46;99800.63;5051386;28;20071;-83
2023/04/20 04:05:37;;;;;;;0.60;0.60;;;;;;;8.52;39.66;99799.59;5043525;28;20045;-82
2023/04/20 04:08:04;;;;;;;0.60;0.60;;;;;;;8.64;39.18;99794.38;5034311;28;20049;-82
2023/04/20 04:10:32;;;;;;;0.60;0.60;;;;;;;8.76;39.23;99792.69;5052175;28;20045;-82
2023/04/20 04:12:59;;;;;;;0.57;0.57;;;;;;;8.84;38.68;99786.25;5022590;28;20480;-83
2023/04/20 04:15:26;;;;;;;0.60;0.60;;;;;;;8.96;38.80;99789.88;5033790;28;20577;-83
2023/04/20 04:18:00;;;;;;;0.70;0.70;;;;;;;9.03;38.64;99790.69;5053979;28;20048;-84
2023/04/20 04:20:30;;;;;;;0.60;0.60;;;;;;;9.13;38.37;99778.63;5041624;28;20065;-84
2023/04/20 04:22:58;;;;;;;0.60;0.60;;;;;;;9.22;38.00;99778.16;5045436;28;20049;-86
2023/04/20 04:25:45;;;;;;;0.60;0.60;;;;;;;9.37;37.54;99783.25;5054845;28;20044;-84
2023/04/20 04:28:16;;;;;;;0.60;0.60;;;;;;;9.50;37.25;99779.63;5071533;28;20056;-83
2023/04/20 04:31:20;;;;;;;0.60;0.60;;;;;;;9.61;37.02;99781.59;4686294;28;10000865;-83
2023/04/20 04:33:48;;;;;;;0.60;0.60;;;;;;;9.79;36.87;99783.53;5051419;28;20044;-85
2023/04/20 04:36:31;;;;;;;0.60;0.60;;;;;;;9.95;37.05;99782.13;5039326;28;20045;-85
2023/04/20 04:39:18;;;;;;;0.60;0.60;;;;;;;10.13;36.67;99781.38;5057981;28;20049;-85
2023/04/20 04:42:02;;;;;;;0.60;0.60;;;;;;;10.25;36.49;99771.47;5042692;28;20041;-85
2023/04/20 04:44:38;;;;;;;0.60;0.60;;;;;;;10.40;36.28;99776.53;5030079;28;20060;-83
2023/04/20 04:47:13;;;;;;;0.50;0.50;;;;;;;10.53;36.31;99779.13;5048398;28;20048;-84
2023/04/20 04:49:41;;;;;;;0.60;0.60;;;;;;;10.65;35.89;99764.84;5062592;28;20059;-82
2023/04/20 04:52:12;;;;;;;0.60;0.60;;;;;;;10.76;35.76;99772.19;5056897;28;20052;-84
2023/04/20 04:54:39;;;;;;;0.52;0.52;;;;;;;10.80;35.46;99768.81;5064129;28;20057;-83
2023/04/20 04:57:06;;;;;;;0.50;0.50;;;;;;;10.96;35.35;99767.38;5019574;28;20089;-83
2023/04/20 04:59:33;;;;;;;0.50;0.50;;;;;;;11.10;35.58;99762.59;5049504;28;20060;-84
2023/04/20 05:02:04;;;;;;;0.50;0.50;;;;;;;11.22;35.46;99760.75;5067903;28;20491;-85
2023/04/20 05:04:32;;;;;;;0.60;0.60;;;;;;;11.34;35.02;99766.19;5050675;28;20052;-83
2023/04/20 05:07:12;;;;;;;0.60;0.60;;;;;;;11.42;34.50;99770.44;5068695;28;20052;-82
2023/04/20 05:09:40;;;;;;;0.50;0.50;;;;;;;11.46;34.52;99763.50;5051154;28;20044;-84
2023/04/20 05:12:07;;;;;;;0.50;0.50;;;;;;;11.56;34.39;99769.19;5070225;28;20070;-83
2023/04/20 05:14:34;;;;;;;0.50;0.50;;;;;;;11.64;34.35;99768.84;5071058;28;20059;-83
2023/04/20 05:17:02;;;;;;;0.50;0.50;;;;;;;11.73;33.66;99765.81;5069999;28;20044;-83
2023/04/20 05:19:29;;;;;;;0.60;0.60;;;;;;;11.89;33.76;99770.53;5070479;28;20056;-83
2023/04/20 05:21:57;;;;;;;0.57;0.57;;;;;;;11.98;33.02;99771.03;5070133;28;20052;-82
2023/04/20 05:24:24;;;;;;;0.50;0.50;;;;;;;12.05;32.74;99769.84;5064711;28;20128;-84
2023/04/20 05:26:51;;;;;;;0.60;0.60;;;;;;;12.05;32.45;99763.59;5067188;28;20450;-81
2023/04/20 05:29:18;;;;;;;0.50;0.50;;;;;;;12.09;32.78;99767.50;5061893;28;20087;-84
2023/04/20 05:31:45;;;;;;;0.50;0.50;;;;;;;12.23;32.46;99760.78;5048830;28;20495;-83
2023/04/20 05:34:19;;;;;;;0.50;0.50;;;;;;;12.32;32.02;99759.34;5061619;28;20098;-82
2023/04/20 05:36:47;;;;;;;0.60;0.60;;;;;;;12.40;31.78;99758.16;5070341;28;20470;-83
2023/04/20 05:39:14;;;;;;;0.50;0.50;;;;;;;12.46;31.96;99754.50;5052441;28;20507;-81
2023/04/20 05:41:44;;;;;;;0.50;0.50;;;;;;;12.50;31.53;99750.25;5048662;28;20068;-82
2023/04/20 05:44:11;;;;;;;0.50;0.50;;;;;;;12.67;31.63;99757.63;5059564;28;20049;-82
2023/04/20 05:46:38;;;;;;;0.60;0.60;;;;;;;12.76;31.25;99753.47;5066790;28;20060;-82
2023/04/20 05:49:05;;;;;;;0.50;0.50;;;;;;;12.74;31.55;99755.63;5070849;28;20143;-82
2023/04/20 05:51:32;;;;;;;0.60;0.60;;;;;;;12.80;31.18;99750.06;5060509;28;20040;-82
2023/04/20 05:54:00;;;;;;;0.50;0.50;;;;;;;12.91;31.14;99755.66;5063649;28;20049;-81
2023/04/20 05:56:27;;;;;;;0.50;0.50;;;;;;;13.00;30.74;99760.47;5062560;28;20053;-84
2023/04/20 05:58:55;;;;;;;0.50;0.50;;;;;;;13.08;30.47;99753.00;5056922;28;20053;-83
2023/04/20 06:01:22;;;;;;;0.50;0.50;;;;;;;13.19;30.50;99760.25;5061676;28;20049;-84
2023/04/20 06:03:49;;;;;;;0.60;0.60;;;;;;;13.28;29.74;99763.44;5048938;28;20115;-83
2023/04/20 06:06:18;;;;;;;0.50;0.50;;;;;;;13.25;30.08;99750.34;5038393;28;20041;-82
2023/04/20 06:08:46;;;;;;;0.60;0.60;;;;;;;13.38;29.79;99759.00;5061063;28;20060;-83
2023/04/20 06:11:13;;;;;;;0.50;0.50;;;;;;;13.43;29.80;99753.69;5060144;28;20139;-83
2023/04/20 06:13:40;;;;;;;0.50;0.50;;;;;;;13.55;29.38;99752.81;5062225;28;20075;-82
2023/04/20 06:16:09;;;;;;;0.60;0.60;;;;;;;13.68;28.91;99754.38;5057521;28;20044;-84
2023/04/20 06:18:37;;;;;;;0.50;0.50;;;;;;;13.72;28.95;99750.06;5062257;28;20100;-82
2023/04/20 06:21:04;;;;;;;0.50;0.50;;;;;;;13.66;28.47;99758.13;5040580;28;20072;-82
2023/04/20 06:23:31;;;;;;;0.50;0.50;;;;;;;13.73;28.41;99747.13;5059329;28;20045;-85
2023/04/20 06:25:58;;;;;;;0.50;0.50;;;;;;;13.88;27.92;99750.06;5044868;28;20619;-82
2023/04/20 06:28:28;;;;;;;0.50;0.50;;;;;;;13.96;28.05;99745.31;5044994;28;20137;-82
2023/04/20 06:30:55;;;;;;;0.50;0.50;;;;;;;14.03;27.96;99751.38;5053908;28;20051;-82
2023/04/20 06:33:25;;;;;;;0.50;0.50;;;;;;;14.07;27.60;99744.38;5061351;28;20048;-82
2023/04/20 06:35:53;;;;;;;0.50;0.50;;;;;;;14.19;27.43;99755.94;5034017;28;20060;-81
2023/04/20 06:38:21;;;;;;;0.50;0.50;;;;;;;14.36;27.53;99750.50;5061123;28;20044;-83
2023/04/20 06:40:48;;;;;;;0.50;0.50;;;;;;;14.45;27.46;99748.97;5066332;28;20057;-82
2023/04/20 06:43:15;;;;;;;0.50;0.50;;;;;;;14.54;27.81;99743.97;5057566;28;20049;-83
2023/04/20 06:45:43;;;;;;;0.50;0.50;;;;;;;14.57;27.95;99739.91;5033200;28;20132;-82
2023/04/20 06:48:10;;;;;;;0.50;0.50;;;;;;;14.62;28.30;99740.78;5031715;28;20071;-83
2023/04/20 06:50:56;;;;;;;0.50;0.50;;;;;;;14.62;28.45;99738.06;5050978;28;20060;-83
2023/04/20 06:53:23;;;;;;;0.50;0.50;;;;;;;14.73;28.57;99722.72;5055186;28;21914;-83
2023/04/20 06:55:54;;;;;;;0.50;0.50;;;;;;;14.84;28.73;99729.09;5043261;28;20037;-84
2023/04/20 06:58:21;;;;;;;0.50;0.50;;;;;;;14.86;28.75;99732.34;5058929;28;20045;-83
2023/04/20 07:00:50;;;;;;;0.50;0.50;;;;;;;14.90;28.21;99733.50;5055537;28;20099;-83
2023/04/20 07:03:18;;;;;;;0.50;0.50;;;;;;;14.88;27.84;99731.03;5050240;28;20083;-83
2023/04/20 07:05:46;;;;;;;0.45;0.45;;;;;;;14.84;27.75;99723.66;5061658;28;20041;-81
2023/04/20 07:08:14;;;;;;;0.50;0.50;;;;;;;14.96;28.00;99727.03;5073488;28;20044;-82
2023/04/20 07:10:42;;;;;;;0.50;0.50;;;;;;;14.97;27.39;99725.16;5073515;28;20510;-82
2023/04/20 07:13:09;;;;;;;0.40;0.40;;;;;;;14.93;27.90;99720.22;5058605;28;20447;-82
2023/04/20 07:15:36;;;;;;;0.50;0.50;;;;;;;15.10;27.64;99722.03;5082942;28;20070;-82
2023/04/20 07:20:53;;;;;;;0.50;0.50;;;;;;;15.25;27.76;99722.16;5052239;28;20061;-83
2023/04/20 07:23:21;;;;;;;0.50;0.50;;;;;;;15.28;28.01;99712.69;5052574;28;20144;-83
2023/04/20 07:25:48;;;;;;;0.57;0.57;;;;;;;15.27;27.36;99716.50;5052892;28;20143;-83
2023/04/20 07:28:15;;;;;;;0.50;0.50;;;;;;;15.25;27.61;99716.72;5054327;28;20045;-83
2023/04/20 07:30:42;;;;;;;0.60;0.60;;;;;;;15.47;27.40;99710.38;5058486;28;20041;-82
2023/04/20 07:33:10;;;;;;;0.40;0.40;;;;;;;15.72;27.49;99707.06;5073772;28;20076;-82
2023/04/20 07:35:37;;;;;;;0.50;0.50;;;;;;;15.79;26.87;99718.56;5077540;28;20055;-83
2023/04/20 07:38:04;;;;;;;0.60;0.60;;;;;;;15.88;26.53;99708.84;5076620;28;20114;-82
2023/04/20 07:40:32;;;;;;;0.60;0.60;;;;;;;15.97;26.80;99704.50;5072823;28;20121;-83
2023/04/20 07:42:59;;;;;;;0.60;0.60;;;;;;;16.12;26.87;99697.53;5072543;28;20052;-82
2023/04/20 07:45:27;;;;;;;0.60;0.60;;;;;;;16.31;26.90;99698.72;5055265;28;20447;-81
2023/04/20 07:47:56;;;;;;;0.50;0.50;;;;;;;16.49;26.10;99702.06;5072275;28;20102;-82
2023/04/20 07:50:26;;;;;;;0.60;0.60;;;;;;;16.38;26.00;99690.28;5054640;28;20058;-82
2023/04/20 07:52:53;;;;;;;0.60;0.60;;;;;;;16.36;25.87;99706.91;5072553;28;20049;-82
2023/04/20 07:55:22;;;;;;;0.60;0.60;;;;;;;16.47;25.87;99700.41;5054545;28;20044;-82
2023/04/20 07:57:50;;;;;;;0.60;0.60;;;;;;;16.50;25.49;99707.22;5072478;28;20572;-82
2023/04/20 08:00:18;;;;;;;0.50;0.50;;;;;;;16.68;25.65;99700.47;5058284;28;20076;-82
2023/04/20 08:02:45;;;;;;;0.60;0.60;;;;;;;16.86;25.74;99696.47;5078171;28;20466;-83
2023/04/20 08:05:13;;;;;;;0.60;0.60;;;;;;;17.11;24.82;99690.25;5079089;28;20135;-83
2023/04/20 08:07:43;;;;;;;0.50;0.50;;;;;;;17.38;24.36;99686.47;5072612;28;20083;-83
2023/04/20 08:10:14;;;;;;;0.60;0.60;;;;;;;17.52;24.27;99695.72;5072296;28;20098;-83
2023/04/20 08:12:43;;;;;;;0.60;0.60;;;;;;;17.70;23.76;99688.91;5055103;28;20463;-81
2023/04/20 08:15:10;;;;;;;0.60;0.60;;;;;;;18.05;22.31;99695.41;5072081;28;20135;-83
2023/04/20 08:17:40;;;;;;;0.57;0.57;;;;;;;18.12;22.31;99687.75;5071986;28;20078;-82
2023/04/20 08:20:09;;;;;;;0.60;0.60;;;;;;;18.30;21.88;99681.66;5054571;28;20852;-81
2023/04/20 08:22:37;;;;;;;0.50;0.50;;;;;;;18.63;21.54;99676.59;5072994;28;20041;-82
2023/04/20 08:25:04;;;;;;;0.50;0.50;;;;;;;19.12;21.29;99666.78;5071892;28;20071;-83
2023/04/20 08:27:39;;;;;;;0.50;0.50;;;;;;;19.41;20.94;99664.88;5071750;28;20048;-82
2023/04/20 08:30:07;;;;;;;0.52;0.52;;;;;;;19.45;20.79;99668.69;5072104;28;20904;-81
2023/04/20 08:32:36;;;;;;;0.57;0.57;;;;;;;19.52;21.37;99662.06;5034837;28;20584;-83
2023/04/20 08:35:04;;;;;;;0.60;0.60;;;;;;;19.69;21.19;99667.94;5051243;28;20051;-82
2023/04/20 08:37:36;;;;;;;0.60;0.60;;;;;;;19.97;20.93;99654.53;5051442;28;20434;-84
2023/04/20 08:40:04;;;;;;;0.60;0.60;;;;;;;20.48;20.16;99665.69;5051046;28;20882;-83
2023/04/20 08:42:32;;;;;;;0.50;0.50;;;;;;;20.81;19.98;99667.75;5051600;28;20076;-83
2023/04/20 08:44:59;;;;;;;0.60;0.60;;;;;;;21.04;19.36;99666.03;5036376;28;20493;-83
2023/04/20 08:47:34;;;;;;;0.60;0.60;;;;;;;21.17;19.39;99666.09;5052684;28;20045;-83
2023/04/20 08:50:03;;;;;;;0.60;0.60;;;;;;;21.36;19.60;99655.06;5035427;28;20051;-82
2023/04/20 08:52:34;;;;;;;0.60;0.60;;;;;;;21.63;19.52;99656.31;5033933;28;20140;-82
2023/04/20 08:55:02;;;;;;;0.60;0.60;;;;;;;21.77;19.51;99661.81;5032907;28;20049;-82
2023/04/20 08:57:32;;;;;;;0.50;0.50;;;;;;;21.44;19.20;99656.34;5050956;28;20057;-84
2023/04/20 09:00:04;;;;;;;0.60;0.60;;;;;;;21.20;19.53;99654.53;5051590;28;20049;-82
2023/04/20 09:02:50;;;;;;;0.60;0.60;;;;;;;21.28;19.29;99649.47;5034642;28;20049;-82
2023/04/20 09:05:32;;;;;;;0.60;0.60;;;;;;;21.82;18.76;99648.78;5051299;28;20143;-82
2023/04/20 09:08:00;;;;;;;0.60;0.60;;;;;;;22.22;18.12;99640.09;5037195;28;20422;-84
2023/04/20 09:10:40;;;;;;;0.60;0.60;;;;;;;22.00;17.45;99644.34;5056728;28;20048;-83
2023/04/20 09:13:09;;;;;;;0.50;0.50;;;;;;;22.03;17.46;99632.75;5051255;28;20136;-81
2023/04/20 09:15:36;;;;;;;0.60;0.60;;;;;;;22.63;17.08;99639.22;5033881;28;20126;-84
2023/04/20 09:18:13;;;;;;;0.55;0.55;;;;;;;23.05;17.20;99639.94;5068231;28;20052;-84
2023/04/20 09:20:40;;;;;;;0.60;0.60;;;;;;;23.35;17.30;99644.69;5069579;28;20105;-86
2023/04/20 09:23:18;;;;;;;0.50;0.50;;;;;;;23.36;17.34;99648.25;5062948;28;20469;-85
2023/04/20 09:25:51;;;;;;;0.60;0.60;;;;;;;23.57;17.27;99632.00;5045069;28;20090;-85
2023/04/20 09:28:19;;;;;;;0.57;0.57;;;;;;;23.60;16.76;99631.41;5063539;28;20045;-83
2023/04/20 09:30:47;;;;;;;0.53;0.53;;;;;;;23.60;16.78;99628.66;4713221;28;10001007;-83
2023/04/20 09:33:15;;;;;;;0.50;0.50;;;;;;;24.03;16.47;99625.31;5056796;28;20045;-84
2023/04/20 09:35:43;;;;;;;0.57;0.57;;;;;;;23.06;16.83;99625.84;5047063;28;20107;-83
2023/04/20 09:38:14;;;;;;;0.60;0.60;;;;;;;23.05;17.33;99618.72;5043488;28;20053;-83
2023/04/20 09:40:42;;;;;;;0.60;0.60;;;;;;;23.59;17.49;99618.75;5063038;28;20109;-82
2023/04/20 09:43:19;;;;;;;0.50;0.50;;;;;;;24.32;17.11;99613.69;5066950;28;20048;-83
2023/04/20 09:45:46;;;;;;;0.60;0.60;;;;;;;24.63;16.09;99615.53;5067420;28;20055;-83
2023/04/20 09:48:17;;;;;;;0.55;0.55;;;;;;;24.49;15.31;99614.91;5048141;28;20048;-83
2023/04/20 09:50:45;;;;;;;0.60;0.60;;;;;;;24.90;15.23;99599.81;4997635;28;20056;-84
2023/04/20 09:53:17;;;;;;;0.50;0.50;;;;;;;24.95;15.47;99605.97;5066177;28;20045;-83
2023/04/20 09:55:48;;;;;;;0.57;0.57;;;;;;;24.85;15.49;99603.53;5010842;28;20537;-81
2023/04/20 09:58:19;;;;;;;0.50;0.50;;;;;;;25.03;15.63;99591.34;5039672;28;20111;-83
2023/04/20 10:00:46;;;;;;;0.50;0.50;;;;;;;25.68;15.26;99596.91;5047491;28;20045;-83
2023/04/20 10:03:18;;;;;;;0.50;0.50;;;;;;;25.82;14.96;99602.22;5050193;28;20507;-84
2023/04/20 10:05:46;;;;;;;0.50;0.50;;;;;;;26.07;14.51;99593.00;5048444;28;20134;-82
2023/04/20 10:08:13;;;;;;;0.50;0.50;;;;;;;26.61;14.19;99595.13;5066632;28;20499;-81
2023/04/20 10:10:45;;;;;;;0.40;0.40;;;;;;;26.68;13.62;99594.59;5066443;28;20641;-83
2023/04/20 10:13:22;;;;;;;0.40;0.40;;;;;;;26.36;14.33;99592.19;5062037;28;20044;-81
2023/04/20 10:15:50;;;;;;;0.50;0.50;;;;;;;26.76;13.68;99585.41;5063799;28;20075;-84
2023/04/20 10:18:23;;;;;;;0.45;0.45;;;;;;;26.98;14.30;99589.78;5064858;28;20119;-81
2023/04/20 10:21:09;;;;;;;0.50;0.50;;;;;;;27.08;14.24;99581.03;5048865;28;20057;-83
2023/04/20 10:23:51;;;;;;;0.50;0.50;;;;;;;27.30;13.92;99576.31;5027274;28;20045;-83
2023/04/20 10:26:19;;;;;;;0.50;0.50;;;;;;;27.22;14.34;99578.81;5054944;28;20048;-84
2023/04/20 10:28:47;;;;;;;0.40;0.40;;;;;;;27.54;13.98;99576.34;5072532;28;20052;-82
2023/04/20 10:31:15;;;;;;;0.50;0.50;;;;;;;27.42;14.12;99565.22;5065862;28;20050;-84
2023/04/20 10:33:53;;;;;;;0.45;0.45;;;;;;;27.16;14.38;99574.59;5060041;28;20045;-82
2023/04/20 10:36:27;;;;;;;0.40;0.40;;;;;;;27.38;14.46;99569.84;5054550;28;20044;-84
2023/04/20 10:38:55;;;;;;;0.20;0.20;;;;;;;25.26;15.22;99569.09;5047845;28;20049;-82
2023/04/20 10:41:22;;;;;;;0.20;0.20;;;;;;;23.18;16.44;99567.47;5035576;28;20071;-84
2023/04/20 10:43:55;;;;;;;0.20;0.20;;;;;;;21.62;17.51;99570.38;5057118;28;20076;-82
2023/04/20 10:46:23;;;;;;;0.30;0.30;;;;;;;21.26;17.92;99575.66;5039252;28;20462;-82
2023/04/20 10:49:00;;;;;;;0.30;0.30;;;;;;;21.17;18.22;99570.06;5052589;28;20518;-82
2023/04/20 10:51:27;;;;;;;0.22;0.22;;;;;;;20.76;18.83;99570.72;5043289;28;20422;-84
2023/04/20 10:54:07;;;;;;;0.30;0.30;;;;;;;20.36;18.78;99572.13;5055837;28;20124;-82
2023/04/20 10:56:40;;;;;;;0.60;0.60;;;;;;;20.92;18.38;99562.25;5047563;28;20137;-81
2023/04/20 10:59:21;;;;;;;0.30;0.30;;;;;;;20.91;18.33;99564.16;5067347;28;20518;-82
2023/04/20 11:01:49;;;;;;;0.30;0.30;;;;;;;20.32;19.12;99558.16;5071086;28;20109;-83
2023/04/20 11:04:17;;;;;;;0.30;0.30;;;;;;;19.98;19.42;99563.84;5063727;28;20118;-81
2023/04/20 11:06:49;;;;;;;0.70;0.70;;;;;;;20.46;18.80;99558.25;5067055;28;20415;-82
2023/04/20 11:09:25;;;;;;;0.70;0.70;;;;;;;22.91;16.96;99544.47;5060639;28;20127;-82
2023/04/20 11:12:00;;;;;;;0.70;0.70;;;;;;;24.97;15.53;99551.25;5062746;28;20079;-82
2023/04/20 11:14:39;;;;;;;0.60;0.60;;;;;;;25.99;15.18;99543.28;5057420;28;20132;-84
2023/04/20 11:17:08;;;;;;;0.40;0.40;;;;;;;25.82;15.05;99541.41;5044025;28;20071;-82
2023/04/20 11:19:43;;;;;;;0.50;0.50;;;;;;;24.75;15.65;99537.63;5073187;28;20048;-81
2023/04/20 11:22:20;;;;;;;0.30;0.30;;;;;;;24.02;16.27;99533.50;5063085;28;20143;-84
2023/04/20 11:24:47;;;;;;;0.20;0.20;;;;;;;23.06;16.59;99531.47;5047321;28;20165;-82
2023/04/20 11:27:23;;;;;;;0.28;0.28;;;;;;;22.18;17.05;99531.84;5040946;28;20045;-83
2023/04/20 11:29:58;;;;;;;0.30;0.30;;;;;;;21.34;17.75;99519.22;5062027;28;20344;-82
2023/04/20 11:32:25;;;;;;;0.22;0.22;;;;;;;20.94;18.35;99527.06;5061871;28;20045;-82
2023/04/20 11:35:08;;;;;;;0.30;0.30;;;;;;;20.20;19.04;99522.16;5055876;28;20049;-83
2023/04/20 11:37:46;;;;;;;0.30;0.30;;;;;;;19.32;19.67;99502.44;5064310;28;20048;-83
2023/04/20 11:40:16;;;;;;;0.30;0.30;;;;;;;19.20;20.49;99505.56;5064391;28;20053;-82
2023/04/20 11:42:43;;;;;;;0.70;0.70;;;;;;;20.71;19.28;99507.72;5072382;28;20190;-82
2023/04/20 11:45:10;;;;;;;0.70;0.70;;;;;;;23.38;17.29;99490.97;5054459;28;20086;-84
2023/04/20 11:47:39;;;;;;;0.60;0.60;;;;;;;24.96;15.48;99502.69;5072717;28;20418;-84
2023/04/20 11:50:09;;;;;;;0.60;0.60;;;;;;;25.35;14.98;99494.50;5066032;28;20403;-83
2023/04/20 11:52:36;;;;;;;0.60;0.60;;;;;;;26.38;14.98;99495.84;5044557;28;20151;-81